Time;durP1;ratioP1;P1;durP2;ratioP2;P2;SDS_P1;SDS_P2;PMS_P1;PMS_P2;Temp;Humidity;BMP_temperature;BMP_pressure;BME280_temperature;BME280_humidity;BME280_pressure;Samples;Min_cycle;Max_cycle;Signal;HPM_P1;HPM_P2
2022/03/22 00:00:24;;;;;;;50.50;25.85;;;;;;;7.88;73.95;103050.31;5093967;28;20073;-71
2022/03/22 00:02:49;;;;;;;45.70;25.17;;;;;;;7.89;73.85;103051.97;5075821;28;20511;-73
2022/03/22 00:05:18;;;;;;;47.97;25.00;;;;;;;7.80;74.11;103049.25;5075830;28;20024;-71
2022/03/22 00:07:43;;;;;;;49.63;25.83;;;;;;;7.86;74.35;103047.03;5075903;28;20024;-71
2022/03/22 00:10:09;;;;;;;45.72;25.10;;;;;;;7.82;74.42;103049.94;5092357;28;20363;-71
2022/03/22 00:12:35;;;;;;;50.75;25.90;;;;;;;7.84;74.76;103048.91;5075588;28;20024;-71
2022/03/22 00:15:02;;;;;;;48.40;26.65;;;;;;;7.84;74.97;103045.50;5093730;28;20474;-71
2022/03/22 00:17:27;;;;;;;54.42;25.63;;;;;;;7.77;74.84;103049.44;5093658;28;20028;-71
2022/03/22 00:19:53;;;;;;;48.15;25.20;;;;;;;7.71;75.39;103044.75;5093892;28;20026;-71
2022/03/22 00:22:19;;;;;;;49.60;25.98;;;;;;;7.68;75.29;103051.78;5075899;28;20028;-71
2022/03/22 00:24:44;;;;;;;51.28;26.45;;;;;;;7.72;75.47;103049.00;5075762;28;20023;-71
2022/03/22 00:27:09;;;;;;;52.03;26.70;;;;;;;7.75;74.75;103047.00;5093862;28;20093;-71
2022/03/22 00:29:34;;;;;;;49.85;26.23;;;;;;;7.76;75.29;103053.78;5074526;28;20016;-71
2022/03/22 00:32:00;;;;;;;48.75;27.27;;;;;;;7.84;75.10;103055.81;5092948;28;20090;-71
2022/03/22 00:34:25;;;;;;;51.92;26.95;;;;;;;7.71;75.21;103050.75;5093233;28;20085;-72
2022/03/22 00:36:50;;;;;;;50.67;27.55;;;;;;;7.59;75.83;103047.28;5093465;28;20443;-71
2022/03/22 00:39:16;;;;;;;54.88;27.10;;;;;;;7.58;75.74;103048.22;5093832;28;20024;-73
2022/03/22 00:41:42;;;;;;;48.13;25.65;;;;;;;7.60;75.91;103048.94;5093958;28;20052;-70
2022/03/22 00:44:08;;;;;;;58.70;27.50;;;;;;;7.67;75.88;103051.91;5075738;28;20024;-71
2022/03/22 00:46:34;;;;;;;49.50;26.35;;;;;;;7.63;75.63;103053.88;5093813;28;20051;-71
2022/03/22 00:49:02;;;;;;;49.20;26.55;;;;;;;7.60;76.11;103048.94;5093815;28;20484;-70
2022/03/22 00:51:27;;;;;;;53.70;27.90;;;;;;;7.62;76.33;103057.38;5075597;28;20029;-72
2022/03/22 00:53:53;;;;;;;53.60;27.75;;;;;;;7.57;76.41;103053.50;5093741;28;20028;-71
2022/03/22 00:56:18;;;;;;;56.13;28.17;;;;;;;7.55;76.43;103053.59;5076866;28;20020;-73
2022/03/22 00:58:43;;;;;;;58.20;27.58;;;;;;;7.50;76.84;103049.72;5097606;28;20133;-74
2022/03/22 01:01:09;;;;;;;59.10;28.55;;;;;;;7.50;76.78;103044.56;5097852;28;20020;-74
2022/03/22 01:03:34;;;;;;;53.05;28.17;;;;;;;7.55;77.10;103052.78;5098313;28;20063;-72
2022/03/22 01:06:01;;;;;;;56.33;27.73;;;;;;;7.68;76.16;103056.09;5097365;28;20101;-73
2022/03/22 01:08:29;;;;;;;49.47;28.02;;;;;;;7.63;76.77;103048.72;5078633;28;20024;-72
2022/03/22 01:10:54;;;;;;;54.75;27.27;;;;;;;7.67;77.16;103051.91;5097181;28;20024;-72
2022/03/22 01:13:22;;;;;;;55.25;28.55;;;;;;;7.59;76.98;103051.63;5098044;28;20424;-72
2022/03/22 01:15:49;;;;;;;51.08;27.63;;;;;;;7.41;77.40;103051.22;5079709;28;20399;-74
2022/03/22 01:18:15;;;;;;;53.00;27.33;;;;;;;7.41;77.48;103046.88;5095168;28;20081;-71
2022/03/22 01:20:44;;;;;;;58.28;28.20;;;;;;;7.43;78.62;103054.50;5094472;28;20112;-72
2022/03/22 01:23:10;;;;;;;56.75;28.50;;;;;;;7.44;77.76;103056.13;5097225;28;20032;-72
2022/03/22 01:25:38;;;;;;;53.53;27.83;;;;;;;7.36;78.55;103048.13;5097201;28;20115;-72
2022/03/22 01:28:05;;;;;;;49.53;27.52;;;;;;;7.32;78.20;103055.25;5080195;28;20032;-72
2022/03/22 01:30:31;;;;;;;55.95;28.27;;;;;;;7.29;77.90;103047.78;5079523;28;20062;-72
2022/03/22 01:32:57;;;;;;;55.70;27.55;;;;;;;7.34;77.95;103055.16;5098055;28;20020;-71
2022/03/22 01:35:24;;;;;;;59.05;28.85;;;;;;;7.31;78.29;103051.06;5097316;28;20039;-71
2022/03/22 01:37:51;;;;;;;56.15;28.33;;;;;;;7.36;78.58;103046.38;5079337;28;20112;-70
2022/03/22 01:40:18;;;;;;;47.85;27.25;;;;;;;7.36;78.14;103043.81;5079011;28;20054;-72
2022/03/22 01:42:45;;;;;;;58.28;29.30;;;;;;;7.41;78.63;103039.16;5097218;28;20536;-71
2022/03/22 01:45:11;;;;;;;53.10;28.65;;;;;;;7.33;78.19;103049.19;5078778;28;20020;-71
2022/03/22 01:47:37;;;;;;;52.65;30.48;;;;;;;7.23;78.79;103041.31;5096988;28;20046;-72
2022/03/22 01:50:05;;;;;;;52.13;28.15;;;;;;;7.21;78.81;103044.91;5096698;28;20044;-72
2022/03/22 01:52:34;;;;;;;52.53;27.55;;;;;;;7.19;78.20;103042.47;5078724;28;20127;-72
2022/03/22 01:55:01;;;;;;;57.20;28.80;;;;;;;7.20;78.22;103038.16;5096501;28;20058;-71
2022/03/22 01:57:30;;;;;;;52.47;28.00;;;;;;;7.20;78.52;103030.44;5096347;28;20024;-72
2022/03/22 01:59:56;;;;;;;51.95;28.30;;;;;;;7.14;78.91;103043.72;5096196;28;20024;-72
2022/03/22 02:07:50;;;;;;;61.60;29.33;;;;;;;7.04;78.97;103024.72;5096559;28;20044;-71
2022/03/22 02:10:16;;;;;;;60.20;28.92;;;;;;;7.04;79.34;103033.25;5096054;28;20374;-71
2022/03/22 02:12:44;;;;;;;60.03;30.83;;;;;;;7.08;79.81;103033.84;5096202;28;20382;-71
2022/03/22 02:15:12;;;;;;;56.20;29.13;;;;;;;7.14;79.65;103031.69;5095843;28;20024;-71
2022/03/22 02:17:38;;;;;;;60.72;29.15;;;;;;;7.15;79.44;103019.66;5077779;28;20024;-72
2022/03/22 02:20:03;;;;;;;57.40;29.27;;;;;;;7.13;79.78;103030.03;5077988;28;20028;-71
2022/03/22 02:22:36;;;;;;;88.28;32.20;;;;;;;7.09;79.22;103025.22;5096132;28;20016;-71
2022/03/22 02:25:02;;;;;;;54.47;29.77;;;;;;;7.23;79.71;103023.31;5078000;28;20523;-71
2022/03/22 02:27:29;;;;;;;56.75;28.40;;;;;;;7.21;79.57;103020.00;5095738;28;20027;-72
2022/03/22 02:29:55;;;;;;;68.55;30.73;;;;;;;7.13;79.48;103021.50;5077902;28;20467;-71
2022/03/22 02:32:24;;;;;;;63.10;30.13;;;;;;;7.13;80.37;103017.16;5076948;28;20042;-71
2022/03/22 02:34:49;;;;;;;55.83;29.02;;;;;;;7.14;79.72;103020.59;5077466;28;20020;-71
2022/03/22 02:37:15;;;;;;;56.78;29.48;;;;;;;7.08;79.83;103026.97;5077433;28;20454;-71
2022/03/22 02:39:41;;;;;;;57.83;28.77;;;;;;;7.11;79.91;103024.19;5077289;28;20028;-71
2022/03/22 02:42:06;;;;;;;56.85;31.27;;;;;;;7.10;80.21;103027.66;5077329;28;20408;-71
2022/03/22 02:44:32;;;;;;;61.58;30.25;;;;;;;6.96;80.97;103032.97;5077427;28;20174;-72
2022/03/22 02:46:57;;;;;;;57.00;29.95;;;;;;;6.95;80.62;103028.75;5095410;28;20157;-72
2022/03/22 02:49:22;;;;;;;62.78;30.00;;;;;;;6.84;80.74;103031.25;5094882;28;20047;-71
2022/03/22 02:51:47;;;;;;;60.22;30.52;;;;;;;6.89;81.06;103026.63;5095383;28;20040;-72
2022/03/22 02:54:13;;;;;;;59.20;29.13;;;;;;;6.86;80.89;103029.41;5095341;28;20034;-71
2022/03/22 02:56:38;;;;;;;56.25;29.77;;;;;;;6.86;81.16;103025.09;5077126;28;20149;-71
2022/03/22 02:59:04;;;;;;;54.28;29.55;;;;;;;6.90;81.30;103034.22;5077101;28;20399;-71
2022/03/22 03:01:32;;;;;;;60.70;30.30;;;;;;;6.93;81.23;103033.19;5095175;28;20105;-71
2022/03/22 03:03:59;;;;;;;59.85;30.20;;;;;;;6.82;81.47;103018.53;5076982;28;20137;-71
2022/03/22 03:06:24;;;;;;;61.75;30.70;;;;;;;6.82;81.45;103025.41;5076914;28;20035;-72
2022/03/22 03:08:50;;;;;;;59.90;31.98;;;;;;;6.73;81.87;103025.13;5076869;28;20032;-71
2022/03/22 03:11:15;;;;;;;56.47;29.65;;;;;;;6.72;82.00;103026.03;5094924;28;20023;-71
2022/03/22 03:16:24;;;;;;;62.88;30.70;;;;;;;6.76;81.94;103024.06;5095326;28;20043;-71
2022/03/22 03:18:51;;;;;;;64.95;31.75;;;;;;;6.81;81.25;103029.72;5095074;28;20456;-72
2022/03/22 03:21:16;;;;;;;62.80;30.55;;;;;;;6.66;81.31;103036.75;5094753;28;20020;-71
2022/03/22 03:23:42;;;;;;;58.63;30.55;;;;;;;6.62;82.17;103034.50;5076798;28;20516;-72
2022/03/22 03:26:07;;;;;;;60.75;30.73;;;;;;;6.59;81.92;103034.69;5094789;28;20047;-72
2022/03/22 03:28:32;;;;;;;56.50;29.23;;;;;;;6.62;81.89;103029.34;5094655;28;20031;-72
2022/03/22 03:30:58;;;;;;;63.40;30.42;;;;;;;6.54;81.92;103027.31;5094595;28;20131;-71
2022/03/22 03:33:23;;;;;;;60.25;30.35;;;;;;;6.57;81.99;103036.56;5094567;28;20460;-71
2022/03/22 03:35:48;;;;;;;62.03;29.83;;;;;;;6.55;81.65;103036.66;5094605;28;20016;-70
2022/03/22 03:38:14;;;;;;;57.60;29.17;;;;;;;6.60;82.09;103038.94;5094689;28;20036;-71
2022/03/22 03:43:23;;;;;;;58.55;30.10;;;;;;;6.54;81.75;103038.41;5095045;28;20382;-72
2022/03/22 03:48:32;;;;;;;61.83;30.15;;;;;;;6.59;82.30;103040.69;5094516;28;20035;-71
2022/03/22 03:50:58;;;;;;;58.42;30.27;;;;;;;6.54;82.30;103040.16;5094512;28;20020;-72
2022/03/22 03:53:23;;;;;;;60.78;30.15;;;;;;;6.53;82.68;103047.06;5094305;28;20028;-71
2022/03/22 03:55:49;;;;;;;63.28;30.65;;;;;;;6.50;82.37;103044.72;5076220;28;20028;-71
2022/03/22 03:58:14;;;;;;;66.72;30.83;;;;;;;6.45;83.00;103040.81;5094031;28;20474;-71
2022/03/22 04:00:39;;;;;;;63.63;31.38;;;;;;;6.37;82.81;103037.94;5076122;28;20031;-71
2022/03/22 04:03:04;;;;;;;59.58;30.90;;;;;;;6.32;83.25;103044.19;5094217;28;20055;-72
2022/03/22 04:05:30;;;;;;;58.75;30.30;;;;;;;6.26;83.07;103038.66;5075855;28;20020;-72
2022/03/22 04:07:56;;;;;;;60.88;30.50;;;;;;;6.27;83.55;103045.41;5092865;28;20078;-71
2022/03/22 04:10:21;;;;;;;58.40;30.48;;;;;;;6.26;82.82;103046.34;5093653;28;20047;-71
2022/03/22 04:12:46;;;;;;;58.35;30.80;;;;;;;6.27;82.97;103043.69;5093907;28;20055;-71
2022/03/22 04:15:11;;;;;;;58.72;29.67;;;;;;;6.29;82.54;103051.28;5094032;28;20030;-71
2022/03/22 04:17:38;;;;;;;61.13;29.80;;;;;;;6.22;83.33;103045.75;5094065;28;20421;-71
2022/03/22 04:20:04;;;;;;;61.40;30.33;;;;;;;6.14;83.32;103055.69;5093799;28;20432;-72
2022/03/22 04:22:30;;;;;;;68.70;31.58;;;;;;;6.08;83.37;103049.22;5075576;28;20117;-71
2022/03/22 04:24:55;;;;;;;51.17;29.10;;;;;;;6.19;82.78;103051.09;5093886;28;20103;-71
2022/03/22 04:32:49;;;;;;;62.40;29.40;;;;;;;6.15;82.56;103059.91;5093261;28;20119;-72
2022/03/22 04:35:20;;;;;;;58.83;30.02;;;;;;;6.13;82.73;103061.78;5075136;28;20060;-71
2022/03/22 04:37:47;;;;;;;60.13;30.42;;;;;;;6.15;83.26;103054.75;5093416;28;20371;-71
2022/03/22 04:40:14;;;;;;;59.20;30.17;;;;;;;6.08;83.39;103054.34;5075035;28;20024;-71
2022/03/22 04:42:40;;;;;;;59.00;29.90;;;;;;;6.12;83.31;103060.09;5093185;28;20020;-71
2022/03/22 04:45:06;;;;;;;65.55;30.25;;;;;;;6.04;83.77;103052.94;5075122;28;20020;-72
2022/03/22 04:47:32;;;;;;;59.13;30.85;;;;;;;6.04;83.16;103058.06;5074995;28;20032;-71
2022/03/22 04:49:59;;;;;;;62.85;30.92;;;;;;;5.98;83.94;103066.13;5093208;28;20036;-71
2022/03/22 04:57:52;;;;;;;58.47;30.48;;;;;;;6.00;83.86;103060.91;5097207;28;20045;-72
2022/03/22 05:00:18;;;;;;;61.78;30.75;;;;;;;6.02;84.04;103059.09;5079142;28;20024;-71
2022/03/22 05:02:43;;;;;;;63.58;31.27;;;;;;;5.98;84.48;103065.31;5078895;28;20510;-71
2022/03/22 05:05:08;;;;;;;63.53;31.48;;;;;;;6.06;83.74;103063.91;5078843;28;20076;-71
2022/03/22 05:07:34;;;;;;;59.88;30.52;;;;;;;5.84;84.81;103067.03;5097125;28;20055;-71
2022/03/22 05:09:59;;;;;;;63.25;31.55;;;;;;;5.84;84.76;103069.59;5079004;28;20051;-71
2022/03/22 05:12:25;;;;;;;64.07;30.42;;;;;;;5.88;85.03;103067.66;5097509;28;20024;-71
2022/03/22 05:14:51;;;;;;;59.03;30.40;;;;;;;5.87;84.45;103068.59;5079047;28;20469;-70
2022/03/22 05:17:23;;;;;;;58.17;30.30;;;;;;;5.93;84.68;103075.03;5079236;28;20052;-71
2022/03/22 05:19:50;;;;;;;56.42;30.88;;;;;;;5.83;84.24;103078.19;5097345;28;20035;-71
2022/03/22 05:22:16;;;;;;;54.78;29.83;;;;;;;5.76;85.07;103079.53;5097174;28;20355;-71
2022/03/22 05:24:41;;;;;;;58.20;30.48;;;;;;;5.87;84.84;103066.03;5078920;28;20061;-71
2022/03/22 05:27:07;;;;;;;55.88;29.52;;;;;;;5.87;84.45;103066.03;5079808;28;20028;-72
2022/03/22 05:29:32;;;;;;;64.30;30.50;;;;;;;5.94;84.14;103079.28;5096430;28;20027;-70
2022/03/22 05:31:58;;;;;;;64.85;31.00;;;;;;;5.88;84.92;103081.28;5095552;28;20115;-72
2022/03/22 05:34:23;;;;;;;60.10;30.73;;;;;;;5.93;84.85;103082.72;5077592;28;20016;-70
2022/03/22 05:36:49;;;;;;;60.30;30.00;;;;;;;5.96;84.30;103088.53;5077561;28;20171;-72
2022/03/22 05:39:14;;;;;;;59.20;30.40;;;;;;;5.81;84.62;103084.34;5095433;28;20031;-71
2022/03/22 05:41:40;;;;;;;57.17;30.63;;;;;;;5.90;84.34;103096.63;5077379;28;20012;-70
2022/03/22 05:44:05;;;;;;;68.55;30.38;;;;;;;5.94;84.17;103092.94;5095442;28;20105;-71
2022/03/22 05:46:31;;;;;;;57.72;29.45;;;;;;;6.10;83.90;103093.59;5095913;28;20153;-70
2022/03/22 05:48:57;;;;;;;56.92;30.05;;;;;;;6.04;83.74;103093.16;5095870;28;20161;-71
2022/03/22 05:51:23;;;;;;;72.80;30.08;;;;;;;5.93;83.81;103087.88;5077947;28;20429;-71
2022/03/22 05:53:48;;;;;;;58.15;29.98;;;;;;;6.07;84.07;103088.66;5099135;28;20024;-70
2022/03/22 05:56:14;;;;;;;54.30;28.60;;;;;;;6.04;83.84;103090.59;5096253;28;20027;-71
2022/03/22 05:58:40;;;;;;;59.22;30.30;;;;;;;6.08;84.31;103092.88;5097017;28;20032;-72
2022/03/22 06:01:08;;;;;;;56.25;29.23;;;;;;;6.17;83.56;103094.00;5097955;28;20077;-71
2022/03/22 06:03:34;;;;;;;56.72;29.23;;;;;;;6.10;83.55;103100.47;5095334;28;20024;-71
2022/03/22 06:06:00;;;;;;;57.03;29.70;;;;;;;6.32;83.21;103102.44;5096669;28;20340;-71
2022/03/22 06:08:25;;;;;;;58.33;28.58;;;;;;;6.27;82.69;103100.19;5095698;28;20024;-71
2022/03/22 06:10:50;;;;;;;59.17;29.63;;;;;;;6.23;82.44;103108.19;5096099;28;20111;-71
2022/03/22 06:13:16;;;;;;;58.95;30.15;;;;;;;6.26;82.72;103105.41;5096077;28;20020;-72
2022/03/22 06:15:43;;;;;;;60.75;28.65;;;;;;;6.25;82.43;103099.47;5096238;28;20028;-72
2022/03/22 06:18:10;;;;;;;55.13;28.58;;;;;;;6.40;82.22;103118.16;5096307;28;20032;-71
2022/03/22 06:20:38;;;;;;;55.72;28.63;;;;;;;6.35;81.84;103111.69;5078217;28;20016;-72
2022/03/22 06:23:06;;;;;;;56.72;29.65;;;;;;;6.48;81.45;103112.53;5096273;28;20372;-71
2022/03/22 06:25:33;;;;;;;55.65;29.60;;;;;;;6.63;81.28;103110.66;5096097;28;20363;-71
2022/03/22 06:27:58;;;;;;;60.95;28.85;;;;;;;6.63;81.22;103115.81;5096046;28;20103;-71
2022/03/22 06:30:25;;;;;;;56.60;28.52;;;;;;;6.60;80.57;103121.97;5094582;28;20535;-71
2022/03/22 06:32:52;;;;;;;50.45;27.05;;;;;;;6.74;80.33;103113.31;5096562;28;20052;-68
2022/03/22 06:35:23;;;;;;;59.97;28.42;;;;;;;6.87;80.18;103115.88;5077349;28;20035;-68
2022/03/22 06:37:50;;;;;;;53.47;27.30;;;;;;;6.97;80.02;103115.13;5095905;28;20456;-69
2022/03/22 06:40:17;;;;;;;48.72;26.95;;;;;;;6.99;79.38;103115.88;5096052;28;20423;-68
2022/03/22 06:42:43;;;;;;;47.78;27.73;;;;;;;7.15;78.95;103125.88;5095105;28;20028;-68
2022/03/22 06:45:11;;;;;;;57.28;27.98;;;;;;;7.22;78.44;103116.84;5095126;28;20032;-69
2022/03/22 06:47:39;;;;;;;48.05;26.15;;;;;;;7.21;78.83;103132.34;5077201;28;20020;-68
2022/03/22 06:50:06;;;;;;;50.92;26.83;;;;;;;7.34;78.13;103127.19;5095429;28;20109;-69
2022/03/22 06:52:31;;;;;;;51.40;26.73;;;;;;;7.37;77.40;103130.34;5093355;28;20081;-69
2022/03/22 06:54:57;;;;;;;55.22;27.42;;;;;;;7.16;78.63;103134.41;5094085;28;20024;-70
2022/03/22 06:57:22;;;;;;;54.00;26.20;;;;;;;7.40;77.70;103126.75;5094091;28;20020;-69
2022/03/22 06:59:47;;;;;;;48.78;25.85;;;;;;;7.41;77.50;103130.97;5075777;28;20081;-68
2022/03/22 07:02:13;;;;;;;45.20;26.70;;;;;;;7.51;76.91;103129.38;5075368;28;20020;-69
2022/03/22 07:04:38;;;;;;;46.83;26.17;;;;;;;7.60;76.93;103143.34;5093283;28;20112;-70
2022/03/22 07:07:04;;;;;;;44.33;25.35;;;;;;;7.61;77.37;103137.25;5092909;28;20053;-68
2022/03/22 07:09:29;;;;;;;46.13;25.20;;;;;;;7.75;76.98;103142.25;5094542;28;20023;-68
2022/03/22 07:11:56;;;;;;;50.00;25.25;;;;;;;7.97;76.16;103132.94;5094476;28;20035;-69
2022/03/22 07:14:27;;;;;;;49.22;25.88;;;;;;;8.01;75.81;103139.53;5094604;28;20067;-69
2022/03/22 07:16:52;;;;;;;47.67;25.52;;;;;;;8.16;74.90;103133.25;5094791;28;20102;-69
2022/03/22 07:19:20;;;;;;;48.00;25.17;;;;;;;8.42;74.11;103133.91;5094745;28;20082;-68
2022/03/22 07:21:46;;;;;;;45.92;24.48;;;;;;;8.67;72.67;103145.78;5094738;28;20016;-69
2022/03/22 07:24:13;;;;;;;49.47;25.08;;;;;;;8.66;73.25;103143.31;5076657;28;20413;-69
2022/03/22 07:26:40;;;;;;;48.00;24.60;;;;;;;8.70;73.33;103142.16;5094230;28;20368;-69
2022/03/22 07:29:07;;;;;;;43.92;24.25;;;;;;;8.61;72.24;103142.84;5093389;28;20068;-68
2022/03/22 07:31:38;;;;;;;39.33;24.20;;;;;;;8.78;72.51;103148.38;5076401;28;20032;-69
2022/03/22 07:34:06;;;;;;;45.65;24.83;;;;;;;9.67;70.44;103140.59;5094939;28;20027;-68
2022/03/22 07:36:32;;;;;;;40.92;24.20;;;;;;;11.52;63.10;103139.69;5094688;28;20032;-68
2022/03/22 07:38:57;;;;;;;45.33;23.75;;;;;;;12.02;61.89;103144.72;5098106;28;20035;-68
2022/03/22 07:41:22;;;;;;;45.38;23.65;;;;;;;14.34;54.41;103148.66;5075394;28;20016;-68
2022/03/22 07:43:47;;;;;;;40.67;23.45;;;;;;;15.31;50.66;103137.81;5093046;28;20044;-69
2022/03/22 07:46:13;;;;;;;36.58;23.52;;;;;;;15.96;49.52;103144.00;5093753;28;20035;-68
2022/03/22 07:48:38;;;;;;;37.70;23.88;;;;;;;16.36;47.76;103145.72;5094341;28;20118;-69
2022/03/22 07:53:47;;;;;;;49.55;23.60;;;;;;;17.15;45.71;103150.97;5094766;28;20093;-70
2022/03/22 07:56:13;;;;;;;39.22;23.17;;;;;;;16.81;46.67;103154.72;5094214;28;20024;-69
2022/03/22 07:58:38;;;;;;;44.83;23.02;;;;;;;17.02;46.36;103161.16;5094105;28;20020;-69
2022/03/22 08:01:04;;;;;;;39.70;23.70;;;;;;;17.51;45.84;103152.97;5094458;28;20024;-69
2022/03/22 08:03:29;;;;;;;40.42;24.55;;;;;;;18.08;44.15;103151.69;5094190;28;20056;-68
2022/03/22 08:05:54;;;;;;;34.78;21.92;;;;;;;17.65;44.55;103159.25;5094304;28;20032;-68
2022/03/22 08:08:20;;;;;;;39.35;22.85;;;;;;;18.26;43.09;103139.06;5094254;28;20360;-69
2022/03/22 08:10:46;;;;;;;36.42;22.60;;;;;;;18.64;43.20;103152.88;5075757;28;20454;-69
2022/03/22 08:13:12;;;;;;;35.08;21.73;;;;;;;18.92;41.90;103152.19;5093829;28;20079;-67
2022/03/22 08:15:39;;;;;;;39.70;21.63;;;;;;;18.42;42.87;103157.22;5093566;28;20035;-70
2022/03/22 08:18:04;;;;;;;32.13;21.45;;;;;;;19.06;42.06;103156.56;5094204;28;20522;-68
2022/03/22 08:20:30;;;;;;;30.30;20.35;;;;;;;18.62;42.81;103143.56;5075775;28;20055;-69
2022/03/22 08:23:04;;;;;;;31.35;20.73;;;;;;;18.99;40.96;103160.13;5094014;28;20372;-70
2022/03/22 08:25:31;;;;;;;34.15;20.58;;;;;;;19.55;40.26;103160.25;5075910;28;20028;-70
2022/03/22 08:27:59;;;;;;;31.30;20.00;;;;;;;18.22;42.30;103156.94;5093778;28;20024;-70
2022/03/22 08:30:25;;;;;;;30.33;19.77;;;;;;;17.85;44.27;103154.38;5074287;28;20038;-70
2022/03/22 08:32:56;;;;;;;30.00;20.20;;;;;;;20.24;39.72;103154.31;5092815;28;20422;-68
2022/03/22 08:35:23;;;;;;;32.40;19.88;;;;;;;19.86;39.42;103161.75;5074964;28;20046;-68
2022/03/22 08:37:49;;;;;;;28.40;18.65;;;;;;;20.97;38.23;103162.50;5092869;28;20391;-69
2022/03/22 08:40:16;;;;;;;28.85;18.77;;;;;;;20.60;38.05;103159.38;5092894;28;20032;-69
2022/03/22 08:42:46;;;;;;;30.95;18.73;;;;;;;21.32;36.09;103157.91;5092691;28;20020;-70
2022/03/22 08:45:17;;;;;;;25.52;17.88;;;;;;;20.37;38.02;103159.63;5092289;28;20094;-70
2022/03/22 08:47:45;;;;;;;27.15;17.48;;;;;;;21.39;37.33;103150.84;5074632;28;20116;-70
2022/03/22 08:50:13;;;;;;;37.92;18.05;;;;;;;22.14;34.97;103155.81;5074508;28;20040;-69
2022/03/22 08:52:39;;;;;;;26.65;16.90;;;;;;;22.77;33.62;103159.66;5092143;28;20793;-69
2022/03/22 08:55:07;;;;;;;24.92;16.63;;;;;;;22.57;32.89;103163.19;5093049;28;20024;-69
2022/03/22 08:57:34;;;;;;;24.45;16.52;;;;;;;22.02;33.81;103168.81;5093322;28;20078;-69
2022/03/22 08:59:59;;;;;;;29.35;16.85;;;;;;;22.38;34.27;103170.16;5093677;28;20024;-69
2022/03/22 09:02:24;;;;;;;23.15;16.05;;;;;;;20.88;35.68;103171.56;5075228;28;20024;-70
2022/03/22 09:07:33;;;;;;;22.95;15.77;;;;;;;23.36;32.41;103169.03;5093717;28;20089;-70
2022/03/22 09:09:58;;;;;;;22.02;15.38;;;;;;;23.67;30.68;103165.53;5093795;28;20032;-70
2022/03/22 09:12:24;;;;;;;24.95;15.10;;;;;;;23.42;31.11;103161.09;5093798;28;20024;-68
2022/03/22 09:14:53;;;;;;;26.92;17.38;;;;;;;23.67;30.92;103170.00;5076423;28;20379;-69
2022/03/22 09:17:21;;;;;;;24.48;15.18;;;;;;;24.06;30.27;103153.00;5075920;28;20047;-71
2022/03/22 09:19:47;;;;;;;25.85;14.88;;;;;;;23.58;30.31;103172.09;5094841;28;20016;-69
2022/03/22 09:22:14;;;;;;;26.73;15.35;;;;;;;23.88;30.60;103161.72;5074108;28;20417;-70
2022/03/22 09:24:39;;;;;;;21.17;14.43;;;;;;;24.21;31.01;103160.53;5093454;28;20032;-69
2022/03/22 09:27:05;;;;;;;24.00;14.35;;;;;;;24.75;29.46;103161.50;5093398;28;20031;-69
2022/03/22 09:29:30;;;;;;;24.95;14.90;;;;;;;24.31;28.83;103160.81;5093402;28;20024;-70
2022/03/22 09:31:56;;;;;;;24.42;14.50;;;;;;;24.45;29.08;103170.22;5092672;28;20024;-71
2022/03/22 09:34:25;;;;;;;20.70;13.73;;;;;;;24.82;29.08;103172.00;5091996;28;20020;-69
2022/03/22 09:36:52;;;;;;;24.35;14.60;;;;;;;23.93;29.31;103168.97;5075299;28;20028;-69
2022/03/22 09:39:19;;;;;;;24.58;14.73;;;;;;;23.75;30.85;103172.41;5093235;28;20026;-69
2022/03/22 09:41:45;;;;;;;26.60;14.00;;;;;;;23.50;30.17;103164.47;5075145;28;20093;-70
2022/03/22 09:44:11;;;;;;;24.38;14.60;;;;;;;22.63;31.76;103151.00;5096461;28;20459;-69
2022/03/22 09:46:37;;;;;;;25.23;14.25;;;;;;;22.04;32.85;103147.56;5095678;28;20047;-69
2022/03/22 09:49:03;;;;;;;21.95;13.95;;;;;;;21.76;32.88;103156.50;5096700;28;20044;-69
2022/03/22 09:51:48;;;;;;;26.05;14.10;;;;;;;21.48;33.65;103138.31;5095401;28;20047;-70
2022/03/22 09:54:17;;;;;;;27.48;12.95;;;;;;;21.98;33.47;103151.00;5078528;28;20105;-69
2022/03/22 09:56:43;;;;;;;21.40;12.70;;;;;;;21.95;33.21;103144.34;5096499;28;20452;-68
2022/03/22 09:59:09;;;;;;;20.77;13.05;;;;;;;21.84;32.77;103142.34;5078547;28;20035;-69
2022/03/22 10:01:35;;;;;;;22.77;12.90;;;;;;;22.11;32.54;103147.53;5096404;28;20379;-69
2022/03/22 10:04:02;;;;;;;21.13;13.23;;;;;;;21.81;32.54;103145.38;5097288;28;20034;-68
2022/03/22 10:06:29;;;;;;;23.08;13.02;;;;;;;22.20;32.68;103138.41;5097117;28;20451;-68
2022/03/22 10:08:55;;;;;;;21.13;12.70;;;;;;;22.53;32.40;103127.75;5096193;28;20474;-69
2022/03/22 10:11:20;;;;;;;23.20;12.32;;;;;;;22.59;31.70;103136.66;5077886;28;20052;-68
2022/03/22 10:14:05;;;;;;;24.90;12.35;;;;;;;21.95;32.50;103125.91;5096081;28;20459;-69
2022/03/22 10:16:31;;;;;;;18.58;12.30;;;;;;;22.08;31.57;103130.31;5078159;28;20077;-69
2022/03/22 10:18:56;;;;;;;23.00;12.30;;;;;;;21.71;32.50;103137.09;5077630;28;20020;-69
2022/03/22 10:21:22;;;;;;;17.67;10.65;;;;;;;22.19;31.63;103128.91;5094609;28;20043;-68
2022/03/22 10:23:54;;;;;;;21.60;11.20;;;;;;;22.09;31.67;103124.84;5094326;28;20078;-69
2022/03/22 10:26:20;;;;;;;17.50;11.30;;;;;;;22.61;32.12;103121.41;5096462;28;20055;-69
2022/03/22 10:28:53;;;;;;;22.17;11.32;;;;;;;22.66;30.68;103124.25;5094856;28;20531;-69
2022/03/22 10:31:19;;;;;;;17.25;11.45;;;;;;;22.29;30.84;103124.00;5077657;28;20365;-68
2022/03/22 10:33:52;;;;;;;19.80;10.52;;;;;;;22.63;30.62;103122.03;5096058;28;20027;-70
2022/03/22 10:36:25;;;;;;;17.58;10.13;;;;;;;23.15;29.60;103109.53;5096192;28;20531;-68
2022/03/22 10:38:55;;;;;;;19.25;10.25;;;;;;;23.12;30.80;103110.78;5095627;28;20024;-69
2022/03/22 10:41:25;;;;;;;23.00;13.98;;;;;;;22.39;32.68;103128.84;5095793;28;20095;-68
2022/03/22 10:44:04;;;;;;;20.55;13.20;;;;;;;22.22;33.78;103118.75;5095642;28;20482;-68
2022/03/22 10:46:30;;;;;;;17.55;11.63;;;;;;;22.32;33.76;103120.94;5078200;28;20024;-69
2022/03/22 10:49:05;;;;;;;26.10;13.90;;;;;;;22.65;33.60;103123.44;5095645;28;20051;-69
2022/03/22 10:51:35;;;;;;;26.00;13.80;;;;;;;22.62;34.22;103123.88;5094216;28;20384;-68
2022/03/22 10:54:00;;;;;;;26.58;14.70;;;;;;;22.38;34.10;103120.09;5095355;28;20028;-68
2022/03/22 10:56:30;;;;;;;26.70;15.00;;;;;;;22.73;33.54;103131.09;5095542;28;20039;-70
2022/03/22 10:58:57;;;;;;;23.27;15.02;;;;;;;23.36;33.29;103122.38;5095331;28;20066;-68
2022/03/22 11:01:24;;;;;;;22.17;15.23;;;;;;;22.81;32.96;103124.75;5076663;28;20466;-71
2022/03/22 11:03:53;;;;;;;22.65;15.55;;;;;;;22.18;35.36;103125.47;5094288;28;20576;-68
2022/03/22 11:06:19;;;;;;;24.85;17.08;;;;;;;22.79;35.32;103121.53;5076187;28;20031;-69
2022/03/22 11:08:45;;;;;;;28.35;16.27;;;;;;;23.13;33.85;103124.78;5094731;28;20036;-69
2022/03/22 11:11:11;;;;;;;26.67;16.30;;;;;;;22.41;34.61;103119.72;5094926;28;20360;-69
2022/03/22 11:13:36;;;;;;;28.42;16.05;;;;;;;23.01;33.80;103121.22;5095649;28;20026;-70
2022/03/22 11:16:02;;;;;;;30.27;15.95;;;;;;;22.85;34.08;103125.97;5095011;28;20520;-69
2022/03/22 11:18:29;;;;;;;28.48;16.85;;;;;;;22.23;35.28;103127.47;5093848;28;20024;-68
2022/03/22 11:21:00;;;;;;;30.63;17.67;;;;;;;22.14;35.39;103126.06;5094715;28;20093;-68
2022/03/22 11:23:30;;;;;;;30.70;15.98;;;;;;;21.54;35.91;103121.72;5075634;28;20043;-68
2022/03/22 11:26:10;;;;;;;30.10;17.50;;;;;;;22.43;34.83;103117.66;5094216;28;20039;-67
2022/03/22 11:28:38;;;;;;;30.95;17.80;;;;;;;22.48;35.08;103125.75;5076476;28;20024;-67
2022/03/22 11:31:05;;;;;;;28.75;16.90;;;;;;;22.58;34.85;103114.75;5077819;28;20026;-68
2022/03/22 11:36:16;;;;;;;25.15;17.92;;;;;;;22.28;34.65;103109.22;5095001;28;20086;-66
2022/03/22 11:38:53;;;;;;;29.85;16.45;;;;;;;23.20;33.94;103115.00;5093277;28;20028;-66
2022/03/22 11:44:21;;;;;;;36.70;17.25;;;;;;;22.26;35.05;103105.97;5095053;28;20043;-67
2022/03/22 11:46:48;;;;;;;30.35;16.58;;;;;;;23.15;33.64;103109.53;5094722;28;20020;-67